Accueil
METAR-TAF:

METAR-TAF

Aéroports :

Aéroport international de Senai

Johor Bahru, Malaisie

latitude: 01-38N, longitude: 103-40E, altitude: 37 m

Observation

Le bulletin a été fait il y a 50 minutes, à 12:00 UTC
Vent 2 kt de direction variable
Température 27°C
Humidité 84%
Pression 1008 hPa
Visibilité 10 km ou plus
Quelques nuages à une hauteur de 1000 ft

METAR: WMKJ 221200Z VRB02KT 9999 FEW010 27/24 Q1008

Heure: 20:50 (12:50 UTC)

Prévision

Le bulletin a été fait il y a 1 heure et 50 minutes, à 11:00 UTC
Prévision valable du 22 à 12 UTC au 23 à 12 UTC
Vent 5 kt de sud/sud-est
Visibilité: 8000 m
Quelques nuages à une hauteur de 1000 ft
Nuages épars à une hauteur de 2000 ft

TAF: WMKJ 221100Z 2212/2312 16005KT 8000 FEW010 SCT020

Observations et prévisions météorologiques de plus de 4000 aéroports (messages METAR et TAF).

Les stations disponibles sont représentées par des disques jaunes et rouges sur la carte.

Passer la souris dessus pour voir le nom de la station.

Cliquer dessus pour voir les observations et prévisions météorologiques.

Pour changer de carte: cliquez sur les boutons verts avec une croix noire pour zoomer, sur le bouton vert avec un tiret pour effectuer un zoom arrière, ou sur les flèches vertes pour les cartes adjacentes.


METAR-TAF: